Houwa Maru — JL6394 — position and weather

sailwx.info

Track history (hours):
 
Tides and Currents Weather Stations Pressure Air Temp Water Temp Dewpoint Dewpoint Depression Visibility Wind Speed Wind Dir Waves Ship Positions

Houwa Maru

Last reported at 2014-Sep-26 07:27 UTC. Time now 2014-Oct-01 16:30 UTC.
Position N 33°45' E 130°18'.

Length 76 m.

Type: Ship. MMSI: 431500378.

Date/timePositionNaut miles runAvg speedWind from/ knotsBaromVisibWave heightAir tempDewpointWater temp
2014-Sep-26 07:27N 33°45' E 130°18'8 7.7
2014-Sep-26 06:27N 33°38' E 130°22'2 2.7
2014-Sep-26 05:32N 33°37' E 130°24'0 0.0
2014-Sep-26 04:32N 33°37' E 130°24'0 0.0
2014-Sep-26 03:32N 33°37' E 130°24'0 0.0
2014-Sep-26 02:32N 33°37' E 130°24'0 0.0
2014-Sep-26 01:32N 33°37' E 130°24'0 0.0
2014-Sep-26 00:32N 33°37' E 130°24'0 0.0
2014-Sep-25 23:32N 33°37' E 130°24'0 0.3
2014-Sep-25 22:32N 33°37' E 130°24'3 2.5
2014-Sep-25 21:27N 33°37' E 130°21'0 0.0
2014-Sep-25 20:33N 33°37' E 130°21'0 0.0
2014-Sep-25 19:28N 33°37' E 130°21'0 0.0
2014-Sep-25 18:31N 33°37' E 130°21'0 0.0
2014-Sep-25 17:31N 33°37' E 130°21'0 0.0
2014-Sep-25 16:19N 33°37' E 130°21'0 0.0
2014-Sep-25 15:28N 33°38' E 130°21'0 0.0
2014-Sep-25 14:31N 33°37' E 130°21'0 0.0
2014-Sep-25 13:27N 33°37' E 130°21'8 8.3
2014-Sep-25 12:32N 33°40' E 130°12'  
Track history (hours):
 
Tides and Currents Weather Stations Pressure Air Temp Water Temp Dewpoint Dewpoint Depression Visibility Wind Speed Wind Dir Waves Ship Positions

Houwa Maru

Last reported at 2014-Sep-26 07:27 UTC. Time now 2014-Oct-01 16:30 UTC.
Position N 33°45' E 130°18'.

Length 76 m.

Type: Ship. MMSI: 431500378.

Date/timePositionNaut miles runAvg speedWind from/ knotsBaromVisibWave heightAir tempDewpointWater temp
2014-Sep-26 07:27N 33°45' E 130°18'8 7.7
2014-Sep-26 06:27N 33°38' E 130°22'2 2.7
2014-Sep-26 05:32N 33°37' E 130°24'0 0.0
2014-Sep-26 04:32N 33°37' E 130°24'0 0.0
2014-Sep-26 03:32N 33°37' E 130°24'0 0.0
2014-Sep-26 02:32N 33°37' E 130°24'0 0.0
2014-Sep-26 01:32N 33°37' E 130°24'0 0.0
2014-Sep-26 00:32N 33°37' E 130°24'0 0.0
2014-Sep-25 23:32N 33°37' E 130°24'0 0.3
2014-Sep-25 22:32N 33°37' E 130°24'3 2.5
2014-Sep-25 21:27N 33°37' E 130°21'0 0.0
2014-Sep-25 20:33N 33°37' E 130°21'0 0.0
2014-Sep-25 19:28N 33°37' E 130°21'0 0.0
2014-Sep-25 18:31N 33°37' E 130°21'0 0.0
2014-Sep-25 17:31N 33°37' E 130°21'0 0.0
2014-Sep-25 16:19N 33°37' E 130°21'0 0.0
2014-Sep-25 15:28N 33°38' E 130°21'0 0.0
2014-Sep-25 14:31N 33°37' E 130°21'0 0.0
2014-Sep-25 13:27N 33°37' E 130°21'8 8.3
2014-Sep-25 12:32N 33°40' E 130°12'  

Dump ship's entire track history